createdAt,value
2022-09-16T00:01:48.746Z,15.84
2022-09-16T00:06:45.432Z,15.48
2022-09-16T00:11:45.374Z,15.66
2022-09-16T00:16:45.500Z,15.79
2022-09-16T00:21:45.366Z,16.01
2022-09-16T00:26:45.167Z,15.96
2022-09-16T00:31:45.335Z,15.72
2022-09-16T00:36:44.946Z,15.93
2022-09-16T00:41:57.183Z,16.07
2022-09-16T00:48:35.521Z,15.81
2022-09-16T00:53:45.991Z,15.78
2022-09-16T00:58:35.333Z,15.46
2022-09-16T01:04:52.801Z,15.43
2022-09-16T01:12:38.296Z,15.24
2022-09-16T01:17:38.331Z,15.28
2022-09-16T01:22:38.047Z,15.03
2022-09-16T01:34:51.811Z,14.65
2022-09-16T01:41:09.654Z,14.90
2022-09-16T01:46:09.462Z,14.53
2022-09-16T01:51:09.508Z,14.54
2022-09-16T01:56:09.446Z,14.38
2022-09-16T02:01:09.461Z,14.46
2022-09-16T02:06:09.206Z,14.47
2022-09-16T02:11:09.103Z,14.44
2022-09-16T02:16:09.067Z,14.68
2022-09-16T02:21:09.136Z,14.50
2022-09-16T02:26:08.874Z,14.49
2022-09-16T02:31:11.934Z,14.53
2022-09-16T02:36:08.771Z,13.98
2022-09-16T02:43:53.692Z,14.60
2022-09-16T02:50:47.882Z,14.43
2022-09-16T02:55:47.871Z,14.32
2022-09-16T03:00:47.544Z,14.14
2022-09-16T03:05:47.541Z,13.95
2022-09-16T03:10:47.799Z,14.02
2022-09-16T03:15:47.367Z,14.04
2022-09-16T03:20:47.316Z,14.07
2022-09-16T03:25:47.408Z,13.84
2022-09-16T03:30:47.297Z,13.67
2022-09-16T03:35:47.096Z,13.09
2022-09-16T03:40:50.080Z,12.92
2022-09-16T03:47:05.425Z,12.66
2022-09-16T03:52:05.242Z,12.56
2022-09-16T03:57:05.125Z,12.63
2022-09-16T04:02:05.156Z,12.67
2022-09-16T04:07:05.131Z,12.84
2022-09-16T04:12:04.976Z,12.95
2022-09-16T04:17:05.920Z,13.06
2022-09-16T04:22:04.980Z,13.18
2022-09-16T04:27:04.969Z,13.32
2022-09-16T04:32:04.736Z,13.12
2022-09-16T04:37:07.795Z,13.65
2022-09-16T04:42:04.623Z,13.09
2022-09-16T04:47:04.475Z,13.46
2022-09-16T04:52:04.581Z,13.55
2022-09-16T04:57:04.361Z,13.61
2022-09-16T05:02:04.393Z,13.63
2022-09-16T05:07:04.395Z,14.02
2022-09-16T05:12:04.304Z,14.17
2022-09-16T05:17:04.060Z,14.04
2022-09-16T05:22:04.089Z,13.89
2022-09-16T05:27:04.360Z,14.34
2022-09-16T05:32:03.972Z,14.29
2022-09-16T05:37:06.921Z,14.14
2022-09-16T05:42:03.775Z,14.06
2022-09-16T05:47:11.726Z,14.57
2022-09-16T05:52:14.188Z,15.60
2022-09-16T05:57:11.481Z,16.50
2022-09-16T06:02:12.556Z,16.20
2022-09-16T06:07:03.621Z,16.09
2022-09-16T06:12:03.521Z,16.42
2022-09-16T06:17:03.266Z,16.07
2022-09-16T06:22:03.351Z,15.31
2022-09-16T06:30:37.573Z,16.55
2022-09-16T06:35:36.830Z,16.20
2022-09-16T06:40:37.006Z,17.14
2022-09-16T06:53:40.045Z,17.97
2022-09-16T07:00:09.521Z,17.74
2022-09-16T07:05:16.726Z,17.81
2022-09-16T07:10:16.538Z,17.25
2022-09-16T07:15:09.168Z,17.00
2022-09-16T07:20:08.932Z,17.53
2022-09-16T07:25:08.926Z,16.62
2022-09-16T07:30:09.279Z,17.70
2022-09-16T07:35:09.523Z,17.64
2022-09-16T07:40:08.806Z,18.34
2022-09-16T07:45:08.616Z,17.50
2022-09-16T07:50:11.585Z,17.53
2022-09-16T07:55:08.450Z,16.78
2022-09-16T08:00:08.385Z,16.96
2022-09-16T08:05:08.366Z,16.93
2022-09-16T08:10:08.291Z,17.38
2022-09-16T08:15:08.201Z,17.46
2022-09-16T08:20:08.218Z,18.17
2022-09-16T08:25:08.120Z,17.78
2022-09-16T08:30:08.026Z,17.76
2022-09-16T08:35:07.985Z,17.91
2022-09-16T08:40:08.261Z,17.46
2022-09-16T08:45:07.901Z,17.23
2022-09-16T08:50:10.868Z,17.50
2022-09-16T08:55:07.836Z,17.41
2022-09-16T09:00:07.635Z,17.23
2022-09-16T09:05:07.616Z,17.74
2022-09-16T09:10:10.166Z,17.76
2022-09-16T09:15:07.417Z,17.59
2022-09-16T09:20:07.391Z,17.46
2022-09-16T09:25:07.246Z,17.76
2022-09-16T09:30:07.291Z,17.81
2022-09-16T09:35:07.176Z,18.84
2022-09-16T09:40:07.153Z,17.70
2022-09-16T09:45:06.998Z,17.85
2022-09-16T09:50:10.371Z,17.07
2022-09-16T09:55:06.900Z,17.13
2022-09-16T10:00:06.854Z,17.82
2022-09-16T10:05:07.040Z,17.71
2022-09-16T10:49:59.488Z,16.37
2022-09-16T10:54:59.000Z,16.73
2022-09-16T10:59:58.856Z,17.00
2022-09-16T11:04:58.549Z,16.85
2022-09-16T11:09:58.679Z,18.02
2022-09-16T11:14:58.442Z,18.17
2022-09-16T11:19:58.390Z,18.19
2022-09-16T11:25:06.188Z,17.46
2022-09-16T11:30:05.966Z,17.50
2022-09-16T11:34:58.349Z,16.99
2022-09-16T11:40:01.183Z,17.08
2022-09-16T11:44:57.974Z,17.00
2022-09-16T11:50:06.239Z,17.44
2022-09-16T11:54:57.982Z,17.78
2022-09-16T11:59:57.819Z,18.58
2022-09-16T12:04:57.866Z,18.19
2022-09-16T12:09:57.874Z,18.36
2022-09-16T12:15:00.931Z,18.50
2022-09-16T12:19:58.618Z,17.94
2022-09-16T12:24:57.618Z,17.55
2022-09-16T12:29:57.499Z,17.36
2022-09-16T12:34:57.333Z,18.27
2022-09-16T12:40:00.496Z,18.59
2022-09-16T12:44:57.281Z,18.52
2022-09-16T12:49:57.303Z,19.02
2022-09-16T12:55:07.688Z,18.67
2022-09-16T12:59:58.285Z,18.84
2022-09-16T13:04:57.150Z,19.10
2022-09-16T13:09:56.914Z,19.40
2022-09-16T13:14:56.895Z,19.70
2022-09-16T13:19:57.073Z,19.18
2022-09-16T13:24:56.650Z,19.68
2022-09-16T13:29:56.710Z,19.29
2022-09-16T13:34:56.721Z,18.95
2022-09-16T13:39:59.704Z,18.29
2022-09-16T13:44:56.447Z,17.66
2022-09-16T13:49:56.468Z,18.28
2022-09-16T13:55:12.483Z,18.76
2022-09-16T13:59:57.461Z,18.67
2022-09-16T14:04:56.528Z,18.97
2022-09-16T14:09:56.301Z,19.25
2022-09-16T14:14:56.191Z,19.88
2022-09-16T14:19:56.046Z,19.95
2022-09-16T14:25:06.700Z,20.18
2022-09-16T14:29:57.440Z,19.50
2022-09-16T14:37:36.358Z,21.14
2022-09-16T14:42:36.116Z,19.91
2022-09-16T14:47:52.637Z,18.82
2022-09-16T14:52:37.246Z,19.25
2022-09-16T14:57:35.941Z,21.36
2022-09-16T15:02:36.144Z,21.92
2022-09-16T15:08:53.695Z,20.13
2022-09-16T15:13:53.405Z,19.72
2022-09-16T15:18:53.632Z,19.38
2022-09-16T15:23:54.121Z,18.86
2022-09-16T15:28:53.120Z,18.84
2022-09-16T15:33:53.006Z,18.77
2022-09-16T15:38:53.103Z,18.76
2022-09-16T15:45:14.258Z,18.55
2022-09-16T15:50:13.910Z,18.17
2022-09-16T15:55:13.816Z,17.88
2022-09-16T16:00:13.783Z,17.87
2022-09-16T16:05:13.701Z,17.79
2022-09-16T16:10:13.676Z,17.92
2022-09-16T16:15:13.605Z,17.71
2022-09-16T16:20:13.453Z,17.59
2022-09-16T16:25:13.675Z,17.69
2022-09-16T16:30:13.272Z,17.55
2022-09-16T16:35:16.378Z,17.33
2022-09-16T16:40:13.356Z,16.52
2022-09-16T16:45:13.552Z,17.13
2022-09-16T16:50:13.200Z,17.08
2022-09-16T16:55:13.209Z,17.04
2022-09-16T17:00:13.183Z,16.99
2022-09-16T17:05:13.005Z,16.62
2022-09-16T17:10:12.952Z,16.30
2022-09-16T17:15:12.778Z,16.14
2022-09-16T17:20:12.671Z,16.15
2022-09-16T17:25:12.742Z,16.07
2022-09-16T17:30:12.456Z,15.70
2022-09-16T17:35:15.736Z,15.56
2022-09-16T17:40:12.423Z,14.99
2022-09-16T17:45:12.573Z,15.05
2022-09-16T17:50:12.394Z,14.80
2022-09-16T17:55:12.237Z,14.75
2022-09-16T18:00:13.542Z,14.38
2022-09-16T18:05:19.710Z,14.52
2022-09-16T18:10:12.038Z,14.29
2022-09-16T18:15:12.466Z,14.09
2022-09-16T18:20:12.950Z,14.17
2022-09-16T18:25:12.058Z,14.02
2022-09-16T18:30:11.966Z,13.81
2022-09-16T18:35:14.869Z,13.81
2022-09-16T18:40:11.775Z,13.44
2022-09-16T18:45:11.828Z,13.70
2022-09-16T18:55:32.296Z,13.87
2022-09-16T19:01:52.921Z,13.94
2022-09-16T19:06:52.472Z,13.81
2022-09-16T19:11:52.470Z,13.62
2022-09-16T19:27:08.475Z,13.27
2022-09-16T19:32:07.764Z,13.18
2022-09-16T19:37:09.102Z,12.95
2022-09-16T19:53:58.559Z,13.15
2022-09-16T19:58:58.070Z,13.36
2022-09-16T20:05:48.358Z,13.09
2022-09-16T20:10:48.100Z,13.04
2022-09-16T20:15:48.157Z,13.06
2022-09-16T20:20:49.348Z,13.14
2022-09-16T20:25:47.843Z,13.30
2022-09-16T20:30:47.801Z,13.22
2022-09-16T20:41:31.125Z,13.02
2022-09-16T20:46:32.820Z,13.21
2022-09-16T20:51:31.090Z,12.97
2022-09-16T20:56:37.761Z,12.93
2022-09-16T21:01:32.017Z,13.03
2022-09-16T21:06:32.170Z,13.03
2022-09-16T21:11:32.259Z,13.14
2022-09-16T21:16:30.989Z,12.85
2022-09-16T21:21:30.825Z,12.92
2022-09-16T21:26:30.681Z,12.81
2022-09-16T21:31:33.634Z,12.96
2022-09-16T21:36:30.389Z,12.67
2022-09-16T21:41:30.586Z,12.75
2022-09-16T21:46:30.404Z,12.84
2022-09-16T21:51:30.182Z,12.81
2022-09-16T21:56:30.187Z,12.74
2022-09-16T22:03:10.066Z,13.04
2022-09-16T22:08:09.051Z,12.99
2022-09-16T22:13:09.146Z,13.00
2022-09-16T22:39:57.084Z,12.75
2022-09-16T22:44:56.936Z,12.41
2022-09-16T22:49:56.776Z,12.64
2022-09-16T22:54:56.852Z,12.52
2022-09-16T22:59:56.952Z,12.77
2022-09-16T23:04:56.641Z,12.79
2022-09-16T23:09:56.701Z,12.92
2022-09-16T23:16:15.434Z,13.44
2022-09-16T23:22:43.163Z,13.79
2022-09-16T23:27:43.118Z,13.27
2022-09-16T23:32:42.905Z,13.70
2022-09-16T23:37:42.746Z,13.74
2022-09-16T23:42:43.002Z,13.49
2022-09-16T23:47:42.816Z,13.52
2022-09-16T23:52:42.563Z,13.67
2022-09-16T23:57:42.475Z,13.98
